Kalliste — FNEH — position and weather

sailwx.info

Track history (hours):
 
Tides and Currents Weather Stations Pressure Air Temp Water Temp Dewpoint Dewpoint Depression Visibility Wind Speed Wind Dir Waves Ship Positions

Kalliste

Last reported at 2018-Apr-22 21:51 UTC. Time now 2018-Apr-22 22:03 UTC.
Position N 43°19' E 005°22'.

Length 165 m; beam 29 m.

Type: Passenger vessel. MMSI: 227202000.

Date/timePositionNaut miles runAvg speedWind from/ knotsBaromVisibWave heightAir tempDewpointWater temp
2018-Apr-22 21:51N 43°19' E 005°22'0 0.0
2018-Apr-22 21:27N 43°19' E 005°22'0 0.0
2018-Apr-22 20:57N 43°19' E 005°22'0 0.0
2018-Apr-22 20:27N 43°19' E 005°22'0 0.0
2018-Apr-22 19:21N 43°19' E 005°22'0 0.0
2018-Apr-22 18:57N 43°19' E 005°22'0 0.0
2018-Apr-22 18:15N 43°19' E 005°22'0 0.0
2018-Apr-22 17:57N 43°19' E 005°22'0 0.0
2018-Apr-22 17:21N 43°19' E 005°22'0 0.0
2018-Apr-22 14:45N 43°19' E 005°22'0 0.0
2018-Apr-22 14:21N 43°19' E 005°22'0 0.0
2018-Apr-22 13:51N 43°19' E 005°22'0 0.0
2018-Apr-22 13:27N 43°19' E 005°22'0 0.0
2018-Apr-22 12:57N 43°19' E 005°22'0 0.0
2018-Apr-22 12:21N 43°19' E 005°22'0 0.0
2018-Apr-22 11:57N 43°19' E 005°22'0 0.0
2018-Apr-22 11:03N 43°19' E 005°22'0 0.0
2018-Apr-22 10:57N 43°19' E 005°22'0 0.0
2018-Apr-22 10:27N 43°19' E 005°22'0 0.0
2018-Apr-22 09:57N 43°19' E 005°22'0 0.0
2018-Apr-22 09:15N 43°19' E 005°22'0 0.0
2018-Apr-22 08:21N 43°19' E 005°22'0 0.0
2018-Apr-22 07:39N 43°19' E 005°22'0 0.0
2018-Apr-22 07:15N 43°19' E 005°22'0 0.0
2018-Apr-22 06:51N 43°19' E 005°22'0 0.0
2018-Apr-22 06:02N 43°19' E 005°22'0 0.0
2018-Apr-22 06:00N 43°19' E 005°22'2 3.1
2018-Apr-22 05:30N 43°20' E 005°21'2 3.3
2018-Apr-22 05:00N 43°19' E 005°19'7615.9
2018-Apr-22 00:12N 42°33' E 006°42'416.1
2018-Apr-21 23:58N 42°31' E 006°47'2315.7
2018-Apr-21 22:29N 42°19' E 007°14'815.8
2018-Apr-21 22:00N 42°16' E 007°23'816.0
2018-Apr-21 21:30N 42°11' E 007°32'815.8
2018-Apr-21 21:00N 42°07' E 007°41'815.7
2018-Apr-21 20:30N 42°03' E 007°50'1515.6
2018-Apr-21 19:32N 41°55' E 008°08'115.4
2018-Apr-21 19:30N 41°55' E 008°09'148 5.7
2018-Apr-20 17:41N 43°13' E 005°18'414.8
2018-Apr-20 17:26N 43°17' E 005°16'510.4
2018-Apr-20 16:58N 43°21' E 005°20'2 3.3
2018-Apr-20 16:19N 43°19' E 005°22'0 0.0
2018-Apr-20 06:25N 43°19' E 005°22'0 0.0
2018-Apr-20 05:57N 43°19' E 005°22'0 0.1
2018-Apr-20 05:30N 43°19' E 005°22'2 4.3
2018-Apr-20 05:00N 43°19' E 005°19'7 0.2
2018-Apr-18 17:38N 43°12' E 005°18'216.0
2018-Apr-18 17:29N 43°14' E 005°16'711.6
2018-Apr-18 16:54N 43°20' E 005°20'2 4.1
2018-Apr-18 16:25N 43°19' E 005°22'0 0.0
2018-Apr-18 05:24N 43°19' E 005°22'1 3.7
2018-Apr-18 05:00N 43°20' E 005°21'4 8.0
2018-Apr-18 04:30N 43°16' E 005°19'3 0.1
2018-Apr-16 17:44N 43°14' E 005°16'615.5
2018-Apr-16 17:22N 43°20' E 005°18'3 6.1
2018-Apr-16 16:57N 43°19' E 005°21'0 0.8
2018-Apr-16 16:27N 43°19' E 005°22'0 0.0
2018-Apr-16 15:39N 43°19' E 005°22'0 0.0
2018-Apr-16 13:45N 43°19' E 005°22'0 0.0
2018-Apr-16 13:21N 43°19' E 005°22'0 0.0
2018-Apr-16 12:57N 43°19' E 005°22'0 0.0
2018-Apr-16 12:27N 43°19' E 005°22'0 0.0
2018-Apr-16 11:57N 43°19' E 005°22'0 0.0
2018-Apr-16 11:27N 43°19' E 005°22'0 0.0
2018-Apr-16 10:57N 43°19' E 005°22'0 0.0
2018-Apr-16 09:39N 43°19' E 005°22'0 0.0
2018-Apr-16 09:27N 43°19' E 005°22'0 0.0
2018-Apr-16 08:51N 43°19' E 005°22'0 0.0
2018-Apr-16 08:21N 43°19' E 005°22'0 0.0
2018-Apr-16 07:51N 43°19' E 005°22'0 0.0
2018-Apr-16 07:27N 43°19' E 005°22'0 0.0
2018-Apr-16 07:00N 43°19' E 005°22'0 0.0
2018-Apr-16 06:21N 43°19' E 005°22'0 0.0
2018-Apr-16 05:51N 43°19' E 005°22'0 0.0
2018-Apr-16 05:15N 43°19' E 005°22'0 0.0
2018-Apr-16 04:51N 43°19' E 005°22'0 0.0
2018-Apr-16 04:27N 43°19' E 005°22'0 0.0
2018-Apr-16 03:51N 43°19' E 005°22'0 0.0
2018-Apr-16 03:24N 43°19' E 005°22'0 0.0
2018-Apr-16 02:45N 43°19' E 005°22'0 0.0
2018-Apr-16 02:27N 43°19' E 005°22'0 0.0
2018-Apr-16 01:57N 43°19' E 005°22'0 0.0
2018-Apr-16 01:27N 43°19' E 005°22'0 0.0
2018-Apr-16 00:51N 43°19' E 005°22'0 0.0
2018-Apr-16 00:30N 43°19' E 005°22'0 0.0
2018-Apr-15 23:57N 43°19' E 005°22'0 0.0
2018-Apr-15 23:27N 43°19' E 005°22'0 0.0
2018-Apr-15 22:57N 43°19' E 005°22'0 0.0
2018-Apr-15 22:27N 43°19' E 005°22'0 0.0
2018-Apr-15 21:57N 43°19' E 005°22'0 0.0
2018-Apr-15 21:27N 43°19' E 005°22'0 0.0
2018-Apr-15 20:57N 43°19' E 005°22'0 0.0
2018-Apr-15 20:27N 43°19' E 005°22'0 0.0
2018-Apr-15 19:57N 43°19' E 005°22'0 0.0
2018-Apr-15 19:21N 43°19' E 005°22'0 0.0
2018-Apr-15 18:21N 43°19' E 005°22'0 0.0
2018-Apr-15 17:51N 43°19' E 005°22'0 0.0
2018-Apr-15 17:27N 43°19' E 005°22'0 0.0
2018-Apr-15 16:57N 43°19' E 005°22'0 0.0
2018-Apr-15 16:27N 43°19' E 005°22'0 0.0
2018-Apr-15 15:45N 43°19' E 005°22'0 0.0
2018-Apr-15 15:21N 43°19' E 005°22'0 0.0
2018-Apr-15 14:57N 43°19' E 005°22'0 0.0
2018-Apr-15 14:15N 43°19' E 005°22'0 0.0
2018-Apr-15 13:57N 43°19' E 005°22'0 0.0
2018-Apr-15 13:21N 43°19' E 005°22'0 0.0
2018-Apr-15 12:57N 43°19' E 005°22'0 0.0
2018-Apr-15 12:27N 43°19' E 005°22'0 0.0
2018-Apr-15 11:45N 43°19' E 005°22'0 0.0
2018-Apr-15 11:15N 43°19' E 005°22'0 0.0
2018-Apr-15 10:57N 43°19' E 005°22'0 0.0
2018-Apr-15 10:27N 43°19' E 005°22'0 0.0
2018-Apr-15 09:57N 43°19' E 005°22'0 0.0
2018-Apr-15 09:21N 43°19' E 005°22'0 0.0
2018-Apr-15 08:57N 43°19' E 005°22'0 0.0
2018-Apr-15 08:27N 43°19' E 005°22'0 0.0
2018-Apr-15 08:00N 43°19' E 005°22'0 0.0
2018-Apr-15 07:27N 43°19' E 005°22'0 0.0
2018-Apr-15 06:57N 43°19' E 005°22'0 0.0
2018-Apr-15 06:21N 43°19' E 005°22'0 0.0
2018-Apr-15 06:00N 43°19' E 005°22'2 4.4
2018-Apr-15 05:29N 43°21' E 005°20'4 8.8
2018-Apr-15 05:01N 43°16' E 005°19'125 4.6
2018-Apr-14 01:33N 42°07' E 007°41'120.0
2018-Apr-14 01:30N 42°08' E 007°40'1120.0
2018-Apr-14 00:57N 42°14' E 007°27'3617.4
2018-Apr-13 22:51N 42°32' E 006°45'515.6
2018-Apr-13 22:30N 42°35' E 006°38'7414.7
2018-Apr-13 17:29N 43°18' E 005°16'4 8.3
2018-Apr-13 17:00N 43°20' E 005°20'2 0.3
2018-Apr-13 11:45N 43°19' E 005°22'0 0.0
2018-Apr-13 11:09N 43°19' E 005°22'0 0.0
2018-Apr-13 10:51N 43°19' E 005°22'0 0.0
2018-Apr-13 09:39N 43°19' E 005°22'0 0.0
2018-Apr-13 09:21N 43°19' E 005°22'0 0.0
2018-Apr-13 09:00N 43°19' E 005°22'0 0.0
2018-Apr-13 07:14N 43°19' E 005°22'0 0.0
2018-Apr-13 07:00N 43°19' E 005°22'0 0.0
2018-Apr-13 06:29N 43°19' E 005°22'0 0.1
2018-Apr-13 05:58N 43°19' E 005°22'3 5.7
2018-Apr-13 05:23N 43°21' E 005°18'614.8
2018-Apr-13 05:00N 43°15' E 005°19'  
Track history (hours):
 
Tides and Currents Weather Stations Pressure Air Temp Water Temp Dewpoint Dewpoint Depression Visibility Wind Speed Wind Dir Waves Ship Positions

Kalliste

Last reported at 2018-Apr-22 21:51 UTC. Time now 2018-Apr-22 22:03 UTC.
Position N 43°19' E 005°22'.

Length 165 m; beam 29 m.

Type: Passenger vessel. MMSI: 227202000.

Date/timePositionNaut miles runAvg speedWind from/ knotsBaromVisibWave heightAir tempDewpointWater temp
2018-Apr-22 21:51N 43°19' E 005°22'0 0.0
2018-Apr-22 21:27N 43°19' E 005°22'0 0.0
2018-Apr-22 20:57N 43°19' E 005°22'0 0.0
2018-Apr-22 20:27N 43°19' E 005°22'0 0.0
2018-Apr-22 19:21N 43°19' E 005°22'0 0.0
2018-Apr-22 18:57N 43°19' E 005°22'0 0.0
2018-Apr-22 18:15N 43°19' E 005°22'0 0.0
2018-Apr-22 17:57N 43°19' E 005°22'0 0.0
2018-Apr-22 17:21N 43°19' E 005°22'0 0.0
2018-Apr-22 14:45N 43°19' E 005°22'0 0.0
2018-Apr-22 14:21N 43°19' E 005°22'0 0.0
2018-Apr-22 13:51N 43°19' E 005°22'0 0.0
2018-Apr-22 13:27N 43°19' E 005°22'0 0.0
2018-Apr-22 12:57N 43°19' E 005°22'0 0.0
2018-Apr-22 12:21N 43°19' E 005°22'0 0.0
2018-Apr-22 11:57N 43°19' E 005°22'0 0.0
2018-Apr-22 11:03N 43°19' E 005°22'0 0.0
2018-Apr-22 10:57N 43°19' E 005°22'0 0.0
2018-Apr-22 10:27N 43°19' E 005°22'0 0.0
2018-Apr-22 09:57N 43°19' E 005°22'0 0.0
2018-Apr-22 09:15N 43°19' E 005°22'0 0.0
2018-Apr-22 08:21N 43°19' E 005°22'0 0.0
2018-Apr-22 07:39N 43°19' E 005°22'0 0.0
2018-Apr-22 07:15N 43°19' E 005°22'0 0.0
2018-Apr-22 06:51N 43°19' E 005°22'0 0.0
2018-Apr-22 06:02N 43°19' E 005°22'0 0.0
2018-Apr-22 06:00N 43°19' E 005°22'2 3.1
2018-Apr-22 05:30N 43°20' E 005°21'2 3.3
2018-Apr-22 05:00N 43°19' E 005°19'7615.9
2018-Apr-22 00:12N 42°33' E 006°42'416.1
2018-Apr-21 23:58N 42°31' E 006°47'2315.7
2018-Apr-21 22:29N 42°19' E 007°14'815.8
2018-Apr-21 22:00N 42°16' E 007°23'816.0
2018-Apr-21 21:30N 42°11' E 007°32'815.8
2018-Apr-21 21:00N 42°07' E 007°41'815.7
2018-Apr-21 20:30N 42°03' E 007°50'1515.6
2018-Apr-21 19:32N 41°55' E 008°08'115.4
2018-Apr-21 19:30N 41°55' E 008°09'148 5.7
2018-Apr-20 17:41N 43°13' E 005°18'414.8
2018-Apr-20 17:26N 43°17' E 005°16'510.4
2018-Apr-20 16:58N 43°21' E 005°20'2 3.3
2018-Apr-20 16:19N 43°19' E 005°22'0 0.0
2018-Apr-20 06:25N 43°19' E 005°22'0 0.0
2018-Apr-20 05:57N 43°19' E 005°22'0 0.1
2018-Apr-20 05:30N 43°19' E 005°22'2 4.3
2018-Apr-20 05:00N 43°19' E 005°19'7 0.2
2018-Apr-18 17:38N 43°12' E 005°18'216.0
2018-Apr-18 17:29N 43°14' E 005°16'711.6
2018-Apr-18 16:54N 43°20' E 005°20'2 4.1
2018-Apr-18 16:25N 43°19' E 005°22'0 0.0
2018-Apr-18 05:24N 43°19' E 005°22'1 3.7
2018-Apr-18 05:00N 43°20' E 005°21'4 8.0
2018-Apr-18 04:30N 43°16' E 005°19'3 0.1
2018-Apr-16 17:44N 43°14' E 005°16'615.5
2018-Apr-16 17:22N 43°20' E 005°18'3 6.1
2018-Apr-16 16:57N 43°19' E 005°21'0 0.8
2018-Apr-16 16:27N 43°19' E 005°22'0 0.0
2018-Apr-16 15:39N 43°19' E 005°22'0 0.0
2018-Apr-16 13:45N 43°19' E 005°22'0 0.0
2018-Apr-16 13:21N 43°19' E 005°22'0 0.0
2018-Apr-16 12:57N 43°19' E 005°22'0 0.0
2018-Apr-16 12:27N 43°19' E 005°22'0 0.0
2018-Apr-16 11:57N 43°19' E 005°22'0 0.0
2018-Apr-16 11:27N 43°19' E 005°22'0 0.0
2018-Apr-16 10:57N 43°19' E 005°22'0 0.0
2018-Apr-16 09:39N 43°19' E 005°22'0 0.0
2018-Apr-16 09:27N 43°19' E 005°22'0 0.0
2018-Apr-16 08:51N 43°19' E 005°22'0 0.0
2018-Apr-16 08:21N 43°19' E 005°22'0 0.0
2018-Apr-16 07:51N 43°19' E 005°22'0 0.0
2018-Apr-16 07:27N 43°19' E 005°22'0 0.0
2018-Apr-16 07:00N 43°19' E 005°22'0 0.0
2018-Apr-16 06:21N 43°19' E 005°22'0 0.0
2018-Apr-16 05:51N 43°19' E 005°22'0 0.0
2018-Apr-16 05:15N 43°19' E 005°22'0 0.0
2018-Apr-16 04:51N 43°19' E 005°22'0 0.0
2018-Apr-16 04:27N 43°19' E 005°22'0 0.0
2018-Apr-16 03:51N 43°19' E 005°22'0 0.0
2018-Apr-16 03:24N 43°19' E 005°22'0 0.0
2018-Apr-16 02:45N 43°19' E 005°22'0 0.0
2018-Apr-16 02:27N 43°19' E 005°22'0 0.0
2018-Apr-16 01:57N 43°19' E 005°22'0 0.0
2018-Apr-16 01:27N 43°19' E 005°22'0 0.0
2018-Apr-16 00:51N 43°19' E 005°22'0 0.0
2018-Apr-16 00:30N 43°19' E 005°22'0 0.0
2018-Apr-15 23:57N 43°19' E 005°22'0 0.0
2018-Apr-15 23:27N 43°19' E 005°22'0 0.0
2018-Apr-15 22:57N 43°19' E 005°22'0 0.0
2018-Apr-15 22:27N 43°19' E 005°22'0 0.0
2018-Apr-15 21:57N 43°19' E 005°22'0 0.0
2018-Apr-15 21:27N 43°19' E 005°22'0 0.0
2018-Apr-15 20:57N 43°19' E 005°22'0 0.0
2018-Apr-15 20:27N 43°19' E 005°22'0 0.0
2018-Apr-15 19:57N 43°19' E 005°22'0 0.0
2018-Apr-15 19:21N 43°19' E 005°22'0 0.0
2018-Apr-15 18:21N 43°19' E 005°22'0 0.0
2018-Apr-15 17:51N 43°19' E 005°22'0 0.0
2018-Apr-15 17:27N 43°19' E 005°22'0 0.0
2018-Apr-15 16:57N 43°19' E 005°22'0 0.0
2018-Apr-15 16:27N 43°19' E 005°22'0 0.0
2018-Apr-15 15:45N 43°19' E 005°22'0 0.0
2018-Apr-15 15:21N 43°19' E 005°22'0 0.0
2018-Apr-15 14:57N 43°19' E 005°22'0 0.0
2018-Apr-15 14:15N 43°19' E 005°22'0 0.0
2018-Apr-15 13:57N 43°19' E 005°22'0 0.0
2018-Apr-15 13:21N 43°19' E 005°22'0 0.0
2018-Apr-15 12:57N 43°19' E 005°22'0 0.0
2018-Apr-15 12:27N 43°19' E 005°22'0 0.0
2018-Apr-15 11:45N 43°19' E 005°22'0 0.0
2018-Apr-15 11:15N 43°19' E 005°22'0 0.0
2018-Apr-15 10:57N 43°19' E 005°22'0 0.0
2018-Apr-15 10:27N 43°19' E 005°22'0 0.0
2018-Apr-15 09:57N 43°19' E 005°22'0 0.0
2018-Apr-15 09:21N 43°19' E 005°22'0 0.0
2018-Apr-15 08:57N 43°19' E 005°22'0 0.0
2018-Apr-15 08:27N 43°19' E 005°22'0 0.0
2018-Apr-15 08:00N 43°19' E 005°22'0 0.0
2018-Apr-15 07:27N 43°19' E 005°22'0 0.0
2018-Apr-15 06:57N 43°19' E 005°22'0 0.0
2018-Apr-15 06:21N 43°19' E 005°22'0 0.0
2018-Apr-15 06:00N 43°19' E 005°22'2 4.4
2018-Apr-15 05:29N 43°21' E 005°20'4 8.8
2018-Apr-15 05:01N 43°16' E 005°19'125 4.6
2018-Apr-14 01:33N 42°07' E 007°41'120.0
2018-Apr-14 01:30N 42°08' E 007°40'1120.0
2018-Apr-14 00:57N 42°14' E 007°27'3617.4
2018-Apr-13 22:51N 42°32' E 006°45'515.6
2018-Apr-13 22:30N 42°35' E 006°38'7414.7
2018-Apr-13 17:29N 43°18' E 005°16'4 8.3
2018-Apr-13 17:00N 43°20' E 005°20'2 0.3
2018-Apr-13 11:45N 43°19' E 005°22'0 0.0
2018-Apr-13 11:09N 43°19' E 005°22'0 0.0
2018-Apr-13 10:51N 43°19' E 005°22'0 0.0
2018-Apr-13 09:39N 43°19' E 005°22'0 0.0
2018-Apr-13 09:21N 43°19' E 005°22'0 0.0
2018-Apr-13 09:00N 43°19' E 005°22'0 0.0
2018-Apr-13 07:14N 43°19' E 005°22'0 0.0
2018-Apr-13 07:00N 43°19' E 005°22'0 0.0
2018-Apr-13 06:29N 43°19' E 005°22'0 0.1
2018-Apr-13 05:58N 43°19' E 005°22'3 5.7
2018-Apr-13 05:23N 43°21' E 005°18'614.8
2018-Apr-13 05:00N 43°15' E 005°19'  

Dump ship's entire track history